KDFW

Dallas-Fort Worth International Airport

Airport
ICAO code
KDFW
IATA Code
DFW
Summary
ICAO Region
NAM
ICAO Territory
Location

Dallas, Texas,

Serving
Dallas
Elevation
607 ft
Coordinates
32° 53' 55" N , 97° 2' 25" W
KCC
Cfa
Airport LOS
Parallel Runway Operation
Metar
Observation
KDFW 081853Z 16010G17KT 10SM FEW075 FEW100 SCT250 37/17 A3002 RMK AO2 SLP156 T03720167
Station
Dallas / Fort Worth, Dallas / Fort Worth International Airport
Date/Time
2022-08-08 18:53:00
Wind direction
160°
Wind speed
10 kts
Lowest cloud amount
few clouds
Temperature
37.2°C
Dew point
16.7°C
Humidity
30%
Weather condition
n/a

Description

Large International airport serving the cities of Dallas and Fort Worth, Texas, USA.

Climatology

Humid “subtropical” climate (Köppen climate classification Cfa) - characterized by hot, humid summers and cool winters. Significant amounts of precipitation occur in all seasons in most areas. Winter rainfall (and sometimes snowfall) is associated with large storms that the westerlies steer from west to east. Most summer rainfall occurs during thunderstorms and occasional tropical storms (hurricanes).

Airport map

Aerial View

SKYbrary Partners:

Safety knowledge contributed by: